Date,TemperatureHighF,TemperatureAvgF,TemperatureLowF,DewpointHighF,DewpointAvgF,DewpointLowF,HumidityHigh,HumidityAvg,HumidityLow,PressureMaxIn,PressureMinIn,WindSpeedMaxMPH,WindSpeedAvgMPH,GustSpeedMaxMPH,PrecipitationSumIn
2013-1-1,44.4,35.2,30.0,42.6,34.6,29.8,99,98,87,30.70,30.56,4,0,8,0.01
2013-1-2,32.2,29.3,27.5,31.9,29.1,27.3,99,99,99,30.56,30.39,2,0,3,0.01
2013-1-3,48.6,32.4,24.1,37.6,30.2,23.8,99,93,54,30.40,30.29,3,0,8,0.70
2013-1-4,48.9,41.0,37.0,48.7,40.7,36.8,99,99,95,30.48,30.34,5,1,12,0.05
2013-1-5,44.4,40.9,38.7,44.2,40.7,38.4,99,99,99,30.39,30.30,2,0,6,0.11
2013-1-6,44.4,41.2,38.8,43.6,40.9,38.6,99,99,95,30.36,30.15,4,1,14,0.11
2013-1-7,57.6,45.3,40.6,51.5,44.5,40.4,99,97,80,30.35,29.96,5,1,14,0.06
2013-1-8,50.0,47.6,42.3,49.7,47.4,42.0,99,99,99,30.35,29.90,8,2,20,3.41
2013-1-9,48.7,46.1,43.0,48.5,45.8,42.7,99,99,99,29.92,29.90,4,2,17,0.61
2013-1-10,37.4,33.3,29.3,37.1,33.1,29.1,99,99,99,30.33,30.22,1,0,4,0.09
2013-1-11,46.2,32.6,26.1,32.3,28.2,24.7,99,85,49,30.53,30.32,4,0,8,0.05
2013-1-12,42.6,30.0,25.0,34.3,28.3,24.7,99,94,66,30.64,30.52,4,0,8,0.02
2013-1-13,38.3,30.8,26.6,34.3,29.5,26.4,99,95,80,30.69,30.63,2,0,4,0.00
2013-1-14,44.6,31.3,25.9,34.6,29.1,25.6,99,92,65,30.77,30.66,3,0,8,0.00
2013-1-15,37.2,32.4,26.8,37.0,32.1,26.5,99,99,99,30.91,30.76,2,0,2,0.02
2013-1-16,48.2,32.9,27.0,43.0,31.7,26.7,99,96,74,30.88,30.72,3,0,6,0.00
2013-1-17,35.8,32.2,28.0,35.5,32.0,27.8,99,99,99,30.73,30.49,2,0,3,0.02
2013-1-18,36.0,33.6,29.3,35.7,33.3,29.1,99,99,99,30.55,29.90,3,0,4,0.00
2013-1-19,40.3,36.5,34.7,39.2,36.2,34.3,99,99,95,30.59,29.94,2,0,4,0.00
2013-1-20,50.4,37.2,30.2,46.1,36.7,30.0,99,98,84,30.60,29.97,2,0,5,0.00
2013-1-21,37.0,34.9,32.2,36.8,34.6,31.9,99,99,99,30.48,30.33,2,0,5,0.00
2013-1-22,36.9,33.0,29.7,36.6,32.7,29.4,99,99,99,30.34,30.11,2,0,4,0.00
2013-1-23,44.2,40.1,34.5,44.0,39.8,34.3,99,99,99,30.33,30.04,3,0,11,0.48
2013-1-24,44.2,40.1,36.5,43.0,39.5,36.2,99,98,92,30.40,30.23,2,0,8,0.21
2013-1-25,57.7,44.5,39.2,51.1,42.4,38.3,99,93,64,30.26,30.10,4,1,10,0.01
2013-1-26,44.6,39.8,36.1,43.3,39.2,35.7,99,98,93,30.23,30.07,4,1,14,0.33
2013-1-27,42.6,38.5,35.1,40.9,37.9,34.8,99,98,92,30.25,30.17,5,0,12,0.00
2013-1-28,41.4,37.1,32.2,41.1,36.9,31.9,99,99,99,30.29,30.20,2,0,3,0.12
2013-1-29,52.5,41.8,37.6,52.2,41.4,37.3,99,98,89,30.53,30.28,2,0,4,0.12
2013-1-30,52.0,44.4,41.9,51.5,44.1,41.6,99,99,95,30.58,30.51,2,0,3,0.01
2013-1-31,55.8,46.7,43.3,49.7,45.5,43.1,99,96,78,30.60,30.46,6,1,18,0.01
2013-2-1,52.3,44.4,37.8,46.6,43.2,37.3,99,95,79,30.62,30.53,3,0,7,0.00
2013-2-2,51.3,41.6,37.6,46.6,40.8,37.3,99,97,83,30.59,30.46,3,0,8,0.02
2013-2-3,49.5,42.5,38.3,46.9,42.0,38.0,99,98,90,30.50,30.40,3,0,8,0.00
2013-2-4,53.1,45.1,41.9,45.9,43.4,41.6,99,94,75,30.41,30.07,4,0,17,0.02
2013-2-5,51.3,43.9,41.9,48.4,43.3,41.6,99,98,89,30.12,30.01,5,2,17,1.30
2013-2-6,46.4,43.0,40.8,45.7,42.7,40.6,99,99,96,30.23,29.97,6,1,15,0.81
2013-2-7,58.3,41.2,31.8,42.8,38.0,31.4,99,90,54,30.39,29.98,6,1,13,0.27
2013-2-8,53.4,37.0,28.6,49.6,35.8,28.3,99,96,73,30.51,30.39,2,0,5,0.05
2013-2-9,49.3,40.6,34.9,44.3,39.5,34.6,99,96,81,30.54,30.45,4,0,7,0.09
2013-2-10,43.7,40.8,39.7,43.4,40.5,39.5,99,99,99,30.58,30.53,2,0,3,0.05
2013-2-11,47.3,41.6,36.5,45.1,40.7,36.2,99,97,85,30.56,30.52,3,0,8,0.02
2013-2-12,46.9,46.3,45.7,46.5,45.8,45.1,99,98,97,30.49,30.47,6,3,15,0.00
2013-2-13,47.1,44.6,42.6,46.9,44.1,42.4,99,98,93,30.70,30.51,4,0,8,0.00
2013-2-14,49.3,44.3,41.4,46.3,43.6,41.1,99,98,89,30.76,30.68,2,0,8,0.00
2013-2-15,42.1,38.9,36.5,41.6,38.6,36.2,99,99,98,30.44,30.38,1,0,2,0.00
2013-2-16,57.9,44.8,36.3,51.2,42.8,36.1,99,93,68,30.39,30.32,4,1,11,0.00
2013-2-17,49.3,40.5,34.2,42.8,38.8,33.7,99,94,74,30.45,30.31,4,0,7,0.00
2013-2-18,49.6,39.9,36.0,42.2,38.3,35.7,99,94,72,30.30,29.97,4,0,8,0.09
2013-2-19,54.1,40.3,32.5,44.7,37.6,32.3,99,91,61,30.22,29.94,8,1,14,0.05
2013-2-20,46.4,38.8,33.8,42.8,37.9,33.6,99,97,82,30.24,30.18,3,0,11,0.17
2013-2-21,48.2,39.9,36.0,42.1,38.7,35.7,99,96,78,30.25,30.19,6,1,17,0.02
2013-2-22,52.9,41.7,34.9,47.7,39.8,34.0,99,93,67,30.22,29.83,8,3,18,1.56
2013-2-23,53.8,39.9,29.7,44.9,36.8,29.4,99,90,60,30.56,30.09,4,1,9,1.03
2013-2-24,44.1,40.8,36.7,43.8,40.2,36.4,99,98,88,30.56,30.13,5,1,16,0.59
2013-2-25,56.1,43.1,30.4,41.0,36.5,27.9,99,82,39,30.51,30.05,7,2,19,0.48
2013-2-26,46.8,36.7,29.7,40.9,34.7,29.4,99,93,77,30.53,30.44,4,1,14,0.00
2013-2-28,51.1,49.8,49.5,50.0,49.5,49.2,99,99,96,30.51,30.43,6,2,18,0.72
2013-3-1,57.7,51.9,49.5,53.2,50.6,49.2,99,95,84,30.53,30.45,8,3,21,0.08
2013-3-2,57.0,49.0,37.2,51.7,46.9,37.0,99,93,77,30.47,30.24,8,2,21,0.40
2013-3-3,56.1,39.4,32.7,45.1,37.4,32.5,99,94,52,30.51,30.40,3,0,8,0.02
2013-3-4,54.3,39.9,31.3,42.6,35.7,31.0,99,88,47,30.51,29.69,8,1,13,0.02
2013-3-5,43.2,41.0,40.5,41.4,40.7,40.2,99,98,93,30.00,29.94,1,0,5,0.38
2013-3-6,44.1,41.7,38.8,43.8,41.3,38.6,99,99,97,29.93,29.78,4,1,8,0.18
2013-3-7,55.2,42.5,36.9,45.4,40.5,36.6,99,93,68,30.30,30.25,2,0,6,0.12
2013-3-8,57.0,42.4,33.3,47.9,38.8,33.0,99,89,59,30.45,30.29,5,1,11,0.00
2013-3-9,59.2,42.3,30.9,46.6,38.8,30.7,99,89,62,30.69,30.45,4,1,7,0.02
2013-3-10,42.3,42.3,42.3,42.0,42.0,42.0,99,99,99,30.64,30.63,0,0,0,0.01
2013-3-11,52.5,44.5,41.7,48.0,43.6,41.5,99,97,80,30.65,30.34,2,0,6,0.11
2013-3-12,57.0,49.4,45.0,52.3,48.8,44.7,99,98,83,30.34,30.24,6,3,23,0.39
2013-3-13,60.3,51.8,49.1,52.8,50.2,48.8,99,95,76,30.37,30.27,8,2,16,0.00
2013-3-14,47.7,47.4,47.1,47.4,47.1,46.9,99,99,99,30.33,30.30,2,1,11,0.06
2013-3-15,64.2,52.6,45.7,52.1,48.9,45.4,99,88,62,30.40,30.33,6,2,16,0.02
2013-3-17,52.7,43.0,36.5,40.8,37.3,34.6,97,81,55,30.38,30.35,5,2,11,0.00
2013-3-18,38.7,36.4,34.2,36.3,35.3,33.9,99,96,89,30.44,30.30,4,1,15,0.00
2013-3-19,41.9,35.6,33.3,41.6,35.4,33.0,99,99,99,30.44,29.79,1,0,3,1.30
2013-3-20,53.2,46.0,36.1,49.4,44.3,33.2,99,94,71,30.21,29.55,9,2,24,1.26
2013-3-21,50.2,37.5,30.7,41.3,35.2,30.5,99,92,64,30.41,30.21,8,1,14,0.05
2013-3-22,50.9,37.3,29.7,42.1,34.3,29.4,99,90,60,30.58,30.41,4,1,9,0.02
2013-3-23,54.1,39.7,32.2,41.2,35.4,31.9,99,86,50,30.60,30.51,4,0,9,0.00
2013-3-24,59.2,41.3,31.1,42.0,35.6,30.9,99,84,39,30.51,30.33,4,1,7,0.00
2013-3-25,62.6,43.0,32.0,43.4,35.1,30.6,99,80,33,30.34,30.18,4,1,11,0.00
2013-3-26,60.6,48.9,41.0,45.1,41.7,38.3,97,78,55,30.23,30.17,3,0,6,0.00
2013-3-27,59.5,47.8,42.8,50.3,44.7,42.5,99,90,61,30.20,30.15,4,0,7,0.00
2013-3-28,62.6,48.8,42.3,56.8,47.2,42.0,99,95,73,30.30,30.20,4,1,7,0.00
2013-3-30,69.3,59.0,44.2,51.9,47.4,43.0,99,68,46,30.45,30.29,6,2,11,0.00
2013-3-31,56.8,45.6,41.2,47.7,43.4,40.5,98,92,72,30.29,30.15,4,0,8,0.00
2013-4-1,70.2,52.9,44.6,52.9,47.6,44.3,99,85,47,30.35,30.18,4,1,10,0.00
2013-4-2,59.7,48.5,41.5,50.0,45.7,41.3,99,91,69,30.40,30.35,4,1,8,0.00
2013-4-3,63.7,50.4,42.4,50.8,46.2,42.0,99,88,57,30.40,30.30,5,1,8,0.00
2013-4-4,53.4,52.4,51.4,53.1,52.1,51.2,99,99,99,29.89,29.83,7,3,18,0.91
2013-4-5,58.6,51.4,46.9,52.7,49.7,46.7,99,95,74,30.05,29.89,9,2,21,1.11
2013-4-6,59.9,48.9,43.7,49.4,45.7,42.2,99,90,60,30.10,29.86,6,2,21,0.47
2013-4-7,49.1,43.8,38.8,46.8,43.1,38.6,99,97,91,30.09,29.74,4,0,11,1.02
2013-4-8,59.9,47.0,37.9,51.9,45.0,37.7,99,93,68,30.47,30.09,4,0,8,0.05
2013-4-9,60.4,48.2,40.8,47.0,43.5,40.6,99,85,59,30.54,30.35,5,1,13,0.00
2013-4-10,67.1,52.9,43.7,56.1,48.1,42.5,99,85,57,30.46,30.10,8,2,19,0.51
2013-4-11,43.5,41.3,40.1,43.3,41.1,39.8,99,99,99,30.47,30.45,1,0,2,0.00
2013-4-12,43.9,42.8,41.4,43.6,42.5,41.1,99,99,99,29.56,29.50,4,1,8,0.24
2013-4-13,61.5,44.0,31.5,45.9,39.4,31.2,99,86,48,29.82,29.56,5,1,12,0.05
2013-4-14,58.1,44.1,34.3,46.8,39.1,34.1,99,85,51,29.83,29.75,6,1,13,0.00
2013-4-15,61.9,45.6,32.7,47.6,38.5,32.5,99,80,50,30.01,29.77,6,1,12,0.00
2013-4-16,63.5,46.8,33.1,47.9,35.6,23.7,99,73,26,30.23,30.01,8,2,17,0.00
2013-4-17,66.9,47.1,35.6,46.6,38.7,34.2,96,77,40,30.28,30.22,4,1,10,0.00
2013-4-18,50.0,49.5,49.3,48.6,48.1,47.4,97,95,92,30.46,30.40,5,3,14,0.00
2013-4-19,50.0,49.3,47.3,49.7,49.0,47.0,99,99,99,30.39,30.38,1,0,6,0.39
2013-4-20,57.0,47.1,43.3,52.2,46.6,43.1,99,98,82,30.48,30.39,2,0,5,0.01
2013-4-21,55.4,46.3,37.8,50.9,44.7,37.5,99,94,76,30.56,30.43,4,1,10,0.05
2013-4-22,64.8,48.1,33.8,48.3,33.2,17.4,99,66,20,30.74,30.57,6,2,14,0.02
2013-4-23,44.1,36.4,32.5,38.8,34.5,32.3,99,93,81,30.64,30.50,1,0,2,0.00
2013-4-24,42.8,40.7,38.7,39.0,38.2,37.1,95,91,86,30.52,30.51,1,0,2,0.00
2013-4-25,72.9,56.8,47.5,47.8,46.2,43.2,92,71,37,30.36,30.28,2,0,4,0.00
2013-4-26,73.0,54.8,42.3,54.3,47.7,42.0,99,81,41,30.47,30.36,4,1,10,0.00
2013-4-27,62.4,53.5,47.1,51.1,47.7,45.4,99,82,64,30.41,30.34,7,2,19,0.00
2013-4-28,61.9,51.9,46.2,53.8,47.8,42.0,99,87,62,30.42,30.12,6,2,18,0.05
2013-4-29,67.8,52.2,41.9,47.8,42.0,34.6,99,73,35,30.36,30.10,8,1,13,0.00
2013-4-30,58.8,46.0,33.4,43.7,38.2,33.2,99,77,47,30.66,30.36,5,1,11,0.00
2013-5-1,67.8,49.6,33.6,44.5,36.1,22.8,99,68,22,30.79,30.66,6,1,11,0.00
2013-5-2,69.3,48.5,38.1,42.6,38.6,36.0,97,74,37,30.76,30.63,5,1,11,0.00
2013-5-4,83.5,72.1,57.2,42.6,36.0,29.6,57,33,19,30.30,30.21,4,1,11,0.00
2013-5-5,90.7,69.2,52.0,50.4,43.7,26.8,76,49,15,30.21,29.98,5,1,14,0.00
2013-5-6,91.2,69.5,49.8,56.0,49.1,43.7,91,56,25,30.07,29.96,4,1,8,0.00
2013-5-7,80.2,58.3,50.4,57.1,52.5,49.8,99,84,44,30.20,30.03,4,1,12,0.00
2013-5-8,73.4,58.1,50.0,58.0,52.8,49.7,99,84,57,30.36,30.20,4,1,8,0.00
2013-5-9,63.0,51.7,46.9,57.0,50.9,46.7,99,97,79,30.44,30.35,4,0,7,0.00
2013-5-11,60.8,59.5,58.8,55.9,54.3,53.3,86,83,80,30.25,30.23,1,0,3,0.00
2013-5-12,66.0,59.3,56.3,60.9,58.0,54.5,99,96,79,30.27,30.21,3,1,13,0.00
2013-5-13,67.3,57.1,45.7,57.3,51.8,40.9,96,84,52,30.39,30.15,10,2,22,0.07
2013-5-14,69.4,54.3,42.4,49.7,46.5,42.2,99,78,47,30.43,30.33,6,1,11,0.00
2013-5-15,46.2,44.2,43.3,45.1,43.8,43.1,99,98,96,30.34,30.31,1,0,2,0.00
2013-5-16,75.7,63.5,53.8,54.7,53.7,52.4,98,74,48,30.16,30.08,4,1,10,0.01
2013-5-17,68.7,56.5,51.3,53.7,51.5,48.4,99,85,51,30.19,30.15,4,1,10,0.02
2013-5-18,66.9,58.9,51.8,53.4,50.3,47.1,95,75,53,30.49,30.28,4,1,11,0.00
2013-5-19,69.8,56.3,46.6,55.8,51.5,46.3,99,85,59,30.61,30.49,6,1,8,0.00
2013-5-20,71.8,52.0,44.4,55.4,49.4,44.2,99,92,62,30.57,30.36,4,0,8,0.00
2013-5-22,49.6,47.0,44.6,48.3,46.4,44.3,99,98,95,30.15,30.13,0,0,4,0.27
2013-5-23,60.6,48.3,43.3,50.2,46.0,43.1,99,93,65,30.20,30.13,3,0,11,0.12
2013-5-24,70.2,54.7,44.2,52.9,48.1,44.0,99,82,44,30.25,30.18,4,0,9,0.02
2013-5-25,66.7,54.9,47.1,52.8,49.5,46.6,99,84,54,30.25,30.19,4,1,11,0.09
2013-5-26,70.5,56.9,49.3,58.4,53.1,49.0,99,88,59,30.20,30.16,4,1,13,0.17
2013-5-28,68.5,58.9,50.7,54.5,50.6,47.8,99,76,54,30.08,29.97,8,2,17,0.00
2013-5-29,64.9,53.7,48.7,56.0,50.9,47.6,99,91,69,30.04,29.91,4,0,11,0.19
2013-6-1,75.2,65.7,55.8,55.0,51.5,49.3,81,62,45,30.39,30.27,6,2,11,0.00
2013-6-2,73.4,57.6,52.0,59.1,53.3,50.0,99,87,59,30.31,30.26,4,0,8,0.07
2013-6-3,54.9,52.8,51.1,53.2,52.2,50.8,99,98,94,30.32,30.31,1,0,2,0.00
2013-6-4,51.1,50.6,50.2,50.8,50.3,49.9,99,99,99,30.31,30.31,0,0,1,0.00
2013-6-5,58.3,57.3,56.5,56.3,55.7,55.2,96,94,93,30.26,30.25,0,0,1,0.00
2013-6-6,82.0,64.3,50.4,60.3,54.7,50.1,99,76,39,30.27,30.21,4,1,10,0.00
2013-6-7,69.1,59.9,53.1,57.0,54.2,51.9,97,82,61,30.36,30.23,4,1,9,0.00
2013-6-8,57.0,56.6,56.3,54.7,54.5,54.3,93,93,92,30.36,30.36,0,0,1,0.00
2013-6-9,64.2,56.1,50.0,57.1,51.6,48.6,97,86,73,30.33,30.25,5,1,11,0.00
2013-6-10,78.8,60.8,49.1,53.3,50.0,47.6,98,72,38,30.25,30.08,4,1,8,0.00
2013-6-14,71.4,61.9,50.4,55.8,52.6,49.6,98,74,56,30.41,30.27,4,1,6,0.00
2013-6-15,50.9,48.7,47.1,50.6,48.5,46.9,99,99,98,30.27,30.22,0,0,3,0.00
2013-6-18,79.3,71.9,55.8,52.0,48.4,43.8,78,47,33,30.14,30.09,5,2,12,0.00
2013-6-19,63.3,60.2,54.0,58.0,56.7,52.1,98,89,81,30.21,30.18,1,0,4,0.00
2013-6-20,65.5,57.4,52.7,57.4,54.5,51.4,99,91,72,30.30,30.15,3,1,11,0.04
2013-6-21,52.9,52.5,52.2,52.3,52.1,51.9,99,99,98,30.35,30.34,1,0,2,0.01
2013-6-22,83.5,65.2,48.2,61.0,54.7,47.8,99,74,43,30.35,30.08,4,1,11,0.00
2013-6-23,76.8,67.6,58.1,65.7,63.7,54.9,99,88,63,30.08,29.82,4,0,6,0.38
2013-6-24,78.6,63.7,56.5,61.1,58.0,55.3,99,84,52,29.90,29.78,6,1,18,0.05
2013-6-25,58.6,56.4,55.0,58.4,56.1,54.8,99,99,99,30.05,29.99,2,1,10,0.47
2013-6-26,75.7,62.3,55.0,66.4,58.6,54.8,99,89,65,30.28,30.04,4,1,16,0.15
2013-6-27,74.1,63.4,57.2,68.9,62.1,56.8,99,96,77,30.42,30.26,2,0,7,0.30
2013-6-28,93.6,73.3,56.7,69.8,62.8,56.4,99,76,36,30.41,30.24,4,1,13,0.00
2013-7-1,64.9,63.9,63.0,62.5,62.2,61.9,97,94,92,30.23,30.21,0,0,2,0.00
2013-7-2,87.6,70.2,57.2,66.8,62.1,56.9,99,79,47,30.32,30.24,5,1,9,0.00
2013-7-3,80.8,67.4,57.0,62.0,56.5,50.2,94,71,39,30.37,30.26,5,1,11,0.00
2013-7-4,66.2,57.7,52.9,58.3,55.4,52.6,99,93,75,30.35,30.28,2,0,5,0.00
2013-7-5,79.3,73.1,65.8,62.5,59.8,57.2,79,65,53,30.24,30.17,4,1,9,0.04
2013-7-6,83.8,70.6,58.5,64.1,58.6,54.9,99,70,41,30.19,30.08,4,1,8,0.00
2013-7-7,86.2,67.7,53.4,64.6,59.7,53.1,99,79,45,30.16,30.08,5,1,8,0.00
2013-7-8,86.0,64.8,54.5,65.0,58.2,53.9,99,82,47,30.31,30.15,4,1,8,0.00
2013-7-10,71.1,62.4,55.2,60.3,56.7,53.5,94,83,68,30.29,30.19,3,1,9,0.00
2013-7-11,57.2,55.9,54.7,54.0,52.9,52.1,92,90,88,30.24,30.20,0,0,2,0.00
2013-7-12,71.4,66.0,60.4,58.2,54.9,51.5,83,69,51,30.28,30.24,2,1,9,0.00
2013-7-13,80.8,68.7,53.4,56.7,50.1,43.4,89,56,32,30.42,30.32,4,2,11,0.00
2013-7-14,83.5,71.2,50.2,59.1,52.0,48.7,98,57,35,30.35,30.20,5,2,11,0.00
2013-7-23,90.7,76.7,58.6,64.3,58.4,48.0,99,59,27,30.29,30.18,4,2,9,0.00
2013-7-24,88.0,73.0,52.9,61.2,57.9,52.6,99,65,37,30.28,30.20,5,2,9,0.00
2013-7-25,88.0,68.1,52.2,62.0,56.7,51.9,99,73,36,30.32,30.25,4,1,9,0.00
2013-7-26,86.2,64.8,51.6,61.2,56.3,51.3,99,80,40,30.38,30.29,5,1,8,0.00
2013-7-27,84.0,72.5,57.6,59.8,56.9,54.4,93,62,39,30.37,30.21,4,1,10,0.00
2013-7-28,79.0,62.4,52.7,59.6,55.7,52.4,99,82,51,30.25,30.15,4,1,10,0.00
2013-7-30,83.7,71.4,56.7,62.9,59.5,55.2,95,69,48,30.35,30.28,5,1,8,0.00
2013-7-31,79.9,64.1,53.1,65.7,59.5,52.8,99,87,62,30.34,30.19,4,0,6,0.00
2013-8-1,78.8,68.0,59.5,61.1,58.5,56.7,91,73,55,30.26,30.23,3,1,10,0.00
2013-8-6,88.7,75.2,58.8,64.8,59.0,55.8,99,62,38,30.23,30.13,6,2,11,0.00
2013-8-7,59.0,55.4,53.4,55.8,54.5,53.1,99,97,89,30.19,30.16,1,0,2,0.00
2013-8-10,82.8,72.8,61.0,67.0,64.2,58.9,96,76,60,30.22,30.15,5,1,10,0.15
2013-8-11,80.4,62.3,56.8,62.3,58.5,56.6,99,89,54,30.29,30.21,3,0,8,0.00
2013-8-12,59.0,58.8,57.9,58.1,57.7,56.8,97,96,94,30.26,30.23,0,0,2,0.00
2013-8-13,60.6,58.3,56.3,57.3,56.3,55.2,96,93,89,30.16,30.15,0,0,2,0.00
2013-8-14,87.6,64.1,53.4,64.5,59.2,48.4,99,88,29,30.16,30.12,4,0,10,0.24
2013-8-15,63.1,62.8,60.4,62.9,62.5,60.2,99,99,99,30.20,30.13,1,0,4,0.01
2013-8-16,91.4,71.8,60.3,68.0,62.4,54.6,99,77,34,30.22,30.14,4,1,8,0.00
2013-8-17,67.6,59.9,56.5,63.6,58.8,56.2,99,96,87,30.27,30.21,2,0,6,0.00
2013-8-24,78.8,65.9,54.5,64.9,59.9,54.0,99,83,54,30.14,30.07,5,1,11,0.09
2013-8-25,54.1,53.9,53.8,53.9,53.7,53.5,99,99,99,30.14,30.13,1,0,2,0.00
2013-8-27,88.0,70.6,60.1,62.9,61.0,59.7,99,76,43,30.06,30.01,3,0,7,0.08
2013-8-28,60.1,60.1,60.1,59.8,59.8,59.8,99,99,99,30.05,30.05,0,0,2,0.00
2013-8-29,75.7,66.8,63.0,71.9,65.9,62.7,99,97,84,30.17,30.08,4,1,12,0.84
2013-8-30,62.8,61.4,60.1,62.5,61.1,59.8,99,99,99,30.25,30.20,3,1,10,0.00
2013-9-1,89.8,76.7,59.0,66.1,62.0,56.3,96,64,38,30.09,30.00,4,1,9,0.00
2013-9-2,88.0,65.6,57.0,66.9,58.2,55.9,99,81,41,30.15,30.07,4,0,11,0.00
2013-9-3,58.6,57.6,57.0,58.4,57.2,56.6,99,98,96,30.17,30.15,1,0,2,0.00
2013-9-4,62.1,61.9,61.5,61.8,61.6,61.2,99,99,99,30.27,30.27,0,0,2,0.09
2013-9-5,70.0,63.7,59.2,67.1,62.9,58.9,99,97,86,30.25,30.14,2,0,6,0.12
2013-9-6,72.7,64.9,61.2,68.8,63.7,60.9,99,96,81,30.31,30.16,3,0,9,0.60
2013-9-7,61.5,61.0,59.9,61.2,60.7,59.6,99,99,99,30.30,30.29,2,0,7,0.00
2013-9-8,60.3,59.5,58.1,60.0,59.2,57.8,99,99,99,30.26,30.25,0,0,1,0.00
2013-9-9,83.1,68.4,54.1,65.5,61.1,53.9,99,80,55,30.28,30.19,5,1,8,0.00
2013-9-10,83.1,68.1,51.1,66.6,59.8,50.8,99,78,54,30.21,30.09,4,1,11,0.00
2013-9-11,61.2,59.5,57.7,59.5,58.5,57.4,99,96,91,30.14,30.11,1,0,3,0.00
2013-9-15,62.6,61.0,60.4,62.3,60.8,60.2,99,99,99,30.02,29.97,2,0,7,0.25
2013-9-16,72.5,61.0,56.8,64.7,59.9,56.6,99,97,77,30.14,29.99,4,1,13,0.15
2013-9-18,57.0,53.8,51.3,55.9,53.4,51.0,99,99,96,30.28,30.26,1,0,2,0.00
2013-9-19,86.5,60.6,47.7,63.6,52.2,44.7,99,80,28,30.26,29.97,2,0,8,0.00
2013-9-20,58.5,56.1,53.6,52.6,51.7,50.9,91,85,81,29.96,29.94,0,0,0,0.00
2013-9-22,65.7,55.8,54.3,60.3,55.3,54.0,99,98,83,29.92,29.75,4,1,11,0.00
2013-9-23,70.5,56.4,50.7,58.5,54.0,50.4,99,93,64,30.18,29.94,4,1,11,0.00
2013-9-24,50.7,50.5,50.0,50.4,50.2,49.7,99,99,98,30.08,30.07,1,0,5,0.00
2013-9-25,69.3,53.9,46.4,56.6,50.2,46.1,99,89,60,30.24,30.07,4,0,14,0.00
2013-9-26,66.2,50.4,41.4,55.5,47.9,41.1,99,92,66,30.33,30.24,2,0,8,0.00
2013-9-27,53.1,50.6,47.3,52.8,50.3,47.0,99,99,99,30.32,30.22,2,0,9,0.00
2013-9-28,57.2,52.9,50.5,56.7,52.6,50.1,99,99,99,29.92,29.69,1,0,3,2.74
2013-9-29,52.7,51.5,50.0,52.4,51.2,49.7,99,99,99,29.96,29.87,0,0,2,1.61
2013-9-30,63.5,52.7,46.6,55.2,49.4,46.0,99,90,65,30.34,29.97,0,0,4,0.17
2013-10-1,63.1,51.5,45.0,52.9,48.1,44.7,99,89,59,30.54,30.33,0,0,2,0.17
2013-10-2,50.7,50.7,50.7,49.9,49.8,49.6,97,96,96,30.55,30.54,0,0,2,0.00
2013-10-6,58.6,56.4,53.4,53.2,51.6,49.5,99,85,73,30.34,30.32,0,0,3,0.07
2013-10-7,68.5,56.0,45.3,54.3,50.9,45.1,99,85,54,30.45,30.29,0,0,3,0.02
2013-10-8,64.8,48.5,40.1,55.9,46.4,39.8,99,93,67,30.53,30.41,0,0,2,0.06
2013-10-9,63.7,47.1,36.1,52.2,43.8,35.9,99,90,58,30.58,30.41,0,0,2,0.01
2013-10-10,61.5,49.9,41.4,54.1,48.1,41.1,99,94,68,30.53,30.39,0,0,2,0.01
2013-10-11,49.3,48.4,48.0,49.0,48.2,47.8,99,99,99,30.55,30.52,0,0,0,0.01
2013-10-12,60.4,50.2,42.3,52.3,48.1,42.0,99,93,68,30.66,30.52,0,0,2,0.00
2013-10-13,64.0,46.9,39.7,51.1,43.7,39.5,99,90,61,30.82,30.66,0,0,2,0.01
2013-10-14,63.9,47.4,38.1,53.3,44.3,37.9,99,91,62,30.88,30.81,0,0,2,0.01
2013-10-15,68.2,48.4,38.5,54.9,45.8,38.2,99,92,61,30.84,30.63,0,0,2,0.00
2013-10-16,63.5,50.0,41.4,54.2,47.8,41.1,99,93,70,30.65,30.59,0,0,2,0.01
2013-10-17,63.1,49.0,41.7,53.1,47.3,41.5,99,95,70,30.73,30.65,0,0,2,0.00
2013-10-18,44.2,42.1,39.4,44.0,41.8,39.1,99,99,99,30.70,30.68,0,0,0,0.00
2013-10-20,46.9,46.4,46.2,46.7,46.2,46.0,99,99,99,30.66,30.65,0,0,2,0.00
2013-11-14,43.9,42.9,42.4,43.6,42.7,42.2,99,99,99,30.51,30.48,0,0,0,0.09
2013-11-15,48.2,44.1,41.7,47.9,43.9,41.5,99,99,99,30.49,29.75,0,0,3,0.00
2013-11-16,48.6,40.1,32.7,45.4,38.8,32.5,100,95,81,30.19,29.78,0,0,2,0.00
2013-11-17,56.7,45.7,39.0,50.9,44.6,38.8,100,96,78,30.31,30.19,0,0,2,0.02
2013-11-18,50.7,48.0,44.6,50.5,47.7,44.3,99,99,99,30.30,29.95,0,0,3,1.44
2013-11-19,50.9,38.4,36.7,50.5,36.6,27.1,100,94,67,30.50,29.95,0,0,2,0.17
2013-11-20,46.4,35.1,28.6,36.1,31.1,27.1,100,86,60,30.94,30.50,0,0,3,0.02
2013-11-21,47.1,34.2,28.0,35.4,31.4,27.8,100,91,56,31.10,30.94,0,0,2,0.00
2013-11-22,48.9,36.8,31.5,38.0,33.2,29.4,100,88,63,31.08,30.89,0,0,2,0.00
2013-11-23,56.3,40.2,30.7,44.8,36.9,30.5,100,89,62,30.89,29.58,4,0,58,0.01
2013-11-24,54.0,38.9,33.1,48.5,37.9,32.8,99,97,74,30.68,30.60,0,0,2,0.00
2013-11-25,49.6,36.6,30.4,45.3,35.7,30.1,99,97,82,30.74,29.58,0,0,1,0.00
2013-11-26,48.4,41.0,30.0,45.9,39.0,29.8,99,93,78,30.71,30.51,0,0,2,0.01
2013-11-27,58.3,42.0,36.5,46.9,40.5,36.2,100,95,64,30.51,30.41,0,0,1,0.02
2013-11-28,52.0,38.5,32.7,51.7,38.2,32.5,100,99,90,30.60,30.46,0,0,1,0.00
2013-11-29,46.6,41.7,37.9,46.3,41.5,37.7,99,99,99,30.71,30.60,0,0,1,0.01
2013-11-30,49.5,47.5,44.4,49.5,47.3,44.2,100,99,99,30.73,30.54,0,0,2,0.00
2013-12-1,54.1,48.5,45.7,53.9,44.1,33.8,99,85,63,30.47,30.15,0,0,2,0.07
2013-12-2,52.5,38.1,31.6,39.4,34.1,25.5,100,86,57,30.48,30.23,0,0,3,0.00
2013-12-3,43.5,34.2,29.8,26.0,23.1,18.5,74,64,38,30.74,30.48,0,0,4,0.00
2013-12-4,43.0,27.6,24.1,26.5,23.8,21.9,100,86,50,30.78,30.72,0,0,2,0.00
2013-12-5,35.4,28.3,21.4,32.3,25.4,21.1,99,89,75,30.76,30.62,0,0,2,0.00
2013-12-6,34.3,27.9,25.2,22.7,15.9,8.4,85,61,41,30.67,30.56,0,0,4,0.02
2013-12-7,35.4,24.4,16.3,14.9,11.7,6.6,89,59,35,30.85,30.66,0,0,3,0.00
2013-12-8,37.4,24.2,15.4,22.4,18.0,13.6,96,79,49,31.00,30.84,0,0,2,0.00
2013-12-9,31.8,27.4,18.7,25.3,21.9,16.6,96,80,68,31.01,30.93,0,0,2,0.00
2013-12-10,38.3,31.4,26.4,34.5,30.6,25.4,100,97,84,30.92,30.85,0,0,1,0.00
2013-12-11,39.9,30.2,26.6,39.7,30.0,26.4,100,99,95,30.85,30.58,0,0,0,0.00
2013-12-12,42.4,36.5,27.9,41.5,35.4,27.6,99,96,77,30.59,30.45,0,0,2,0.08
2013-12-13,45.9,43.7,41.4,45.2,43.5,41.1,99,99,99,30.84,30.53,0,0,2,0.00
2013-12-14,49.5,46.4,43.5,47.1,45.5,43.3,100,97,90,30.86,30.73,0,0,4,0.01
2013-12-15,59.4,46.6,44.6,52.1,46.1,44.3,100,98,77,30.88,30.72,0,0,3,0.04
2013-12-16,58.6,42.8,36.9,51.6,42.0,36.6,100,97,75,30.92,30.71,0,0,1,0.00
2013-12-17,40.5,39.1,36.0,40.2,38.8,35.7,99,99,99,30.71,30.54,0,0,1,0.02
2013-12-18,39.7,36.6,31.6,39.6,36.3,31.4,100,99,99,30.60,30.47,0,0,2,0.04
2013-12-19,43.3,34.4,30.6,32.3,28.8,20.7,99,81,51,30.78,30.60,0,0,4,0.00
2013-12-20,40.8,36.5,31.3,38.4,35.6,27.8,100,97,87,30.63,30.11,0,0,3,0.09
2013-12-21,42.3,41.3,38.7,42.0,41.0,38.4,99,99,99,30.60,30.28,0,0,1,0.07
2013-12-22,47.8,44.4,41.4,47.6,44.2,41.1,99,99,99,30.73,30.57,0,0,2,0.02
2013-12-23,61.2,48.1,34.3,53.6,44.9,34.1,100,90,50,30.95,30.55,0,0,3,0.01
2013-12-24,48.4,38.9,34.0,44.9,38.2,33.7,100,97,82,31.06,30.95,0,0,2,0.01